sensor_id;sensor_type;location;lat;lon;timestamp;P1;durP1;ratioP1;P2;durP2;ratioP2
56201;SDS011;42117;50.360;3.508;2023-02-12T00:02:16;28.77;;;14.27;;
56201;SDS011;42117;50.360;3.508;2023-02-12T00:04:42;27.67;;;14.45;;
56201;SDS011;42117;50.360;3.508;2023-02-12T00:07:08;31.48;;;14.77;;
56201;SDS011;42117;50.360;3.508;2023-02-12T00:09:35;30.00;;;14.25;;
56201;SDS011;42117;50.360;3.508;2023-02-12T00:12:02;27.30;;;14.55;;
56201;SDS011;42117;50.360;3.508;2023-02-12T00:14:28;30.20;;;15.10;;
56201;SDS011;42117;50.360;3.508;2023-02-12T00:16:54;30.60;;;15.07;;
56201;SDS011;42117;50.360;3.508;2023-02-12T00:19:20;27.13;;;14.32;;
56201;SDS011;42117;50.360;3.508;2023-02-12T00:21:46;29.42;;;15.25;;
56201;SDS011;42117;50.360;3.508;2023-02-12T00:24:12;29.35;;;15.40;;
56201;SDS011;42117;50.360;3.508;2023-02-12T00:26:38;24.92;;;14.63;;
56201;SDS011;42117;50.360;3.508;2023-02-12T00:29:04;27.63;;;14.68;;
56201;SDS011;42117;50.360;3.508;2023-02-12T00:31:30;30.63;;;15.57;;
56201;SDS011;42117;50.360;3.508;2023-02-12T00:33:57;30.02;;;15.60;;
56201;SDS011;42117;50.360;3.508;2023-02-12T00:36:24;28.83;;;14.67;;
56201;SDS011;42117;50.360;3.508;2023-02-12T00:38:51;28.23;;;14.80;;
56201;SDS011;42117;50.360;3.508;2023-02-12T00:41:17;29.27;;;14.97;;
56201;SDS011;42117;50.360;3.508;2023-02-12T00:43:43;26.83;;;14.05;;
56201;SDS011;42117;50.360;3.508;2023-02-12T00:46:10;31.35;;;14.88;;
56201;SDS011;42117;50.360;3.508;2023-02-12T00:48:36;28.25;;;15.15;;
56201;SDS011;42117;50.360;3.508;2023-02-12T00:51:02;34.17;;;15.32;;
56201;SDS011;42117;50.360;3.508;2023-02-12T00:53:29;29.80;;;14.55;;
56201;SDS011;42117;50.360;3.508;2023-02-12T00:55:55;29.10;;;15.35;;
56201;SDS011;42117;50.360;3.508;2023-02-12T00:58:21;28.38;;;14.52;;
56201;SDS011;42117;50.360;3.508;2023-02-12T01:00:49;32.60;;;15.68;;
56201;SDS011;42117;50.360;3.508;2023-02-12T01:03:15;29.27;;;14.20;;
56201;SDS011;42117;50.360;3.508;2023-02-12T01:05:41;26.85;;;15.07;;
56201;SDS011;42117;50.360;3.508;2023-02-12T01:08:09;26.55;;;15.05;;
56201;SDS011;42117;50.360;3.508;2023-02-12T01:10:35;28.85;;;14.85;;
56201;SDS011;42117;50.360;3.508;2023-02-12T01:13:01;30.52;;;15.13;;
56201;SDS011;42117;50.360;3.508;2023-02-12T01:15:27;28.67;;;14.55;;
56201;SDS011;42117;50.360;3.508;2023-02-12T01:17:53;27.65;;;14.75;;
56201;SDS011;42117;50.360;3.508;2023-02-12T01:20:20;30.23;;;14.70;;
56201;SDS011;42117;50.360;3.508;2023-02-12T01:22:47;31.10;;;15.77;;
56201;SDS011;42117;50.360;3.508;2023-02-12T01:25:13;29.13;;;15.43;;
56201;SDS011;42117;50.360;3.508;2023-02-12T01:27:39;27.27;;;15.63;;
56201;SDS011;42117;50.360;3.508;2023-02-12T01:30:06;26.83;;;14.40;;
56201;SDS011;42117;50.360;3.508;2023-02-12T01:32:33;30.02;;;15.30;;
56201;SDS011;42117;50.360;3.508;2023-02-12T01:34:59;28.83;;;15.70;;
56201;SDS011;42117;50.360;3.508;2023-02-12T01:37:25;30.92;;;15.32;;
56201;SDS011;42117;50.360;3.508;2023-02-12T01:39:51;28.85;;;14.68;;
56201;SDS011;42117;50.360;3.508;2023-02-12T01:42:17;33.22;;;15.27;;
56201;SDS011;42117;50.360;3.508;2023-02-12T01:47:28;29.33;;;14.55;;
56201;SDS011;42117;50.360;3.508;2023-02-12T01:49:54;27.52;;;15.10;;
56201;SDS011;42117;50.360;3.508;2023-02-12T01:52:23;28.33;;;15.02;;
56201;SDS011;42117;50.360;3.508;2023-02-12T01:54:49;29.95;;;15.45;;
56201;SDS011;42117;50.360;3.508;2023-02-12T01:57:16;29.70;;;14.85;;
56201;SDS011;42117;50.360;3.508;2023-02-12T01:59:42;33.13;;;15.40;;
56201;SDS011;42117;50.360;3.508;2023-02-12T02:02:10;30.30;;;14.32;;
56201;SDS011;42117;50.360;3.508;2023-02-12T02:04:39;29.75;;;14.95;;
56201;SDS011;42117;50.360;3.508;2023-02-12T02:07:06;34.17;;;16.38;;
56201;SDS011;42117;50.360;3.508;2023-02-12T02:09:33;31.67;;;15.38;;
56201;SDS011;42117;50.360;3.508;2023-02-12T02:12:00;28.90;;;15.53;;
56201;SDS011;42117;50.360;3.508;2023-02-12T02:14:45;29.25;;;14.38;;
56201;SDS011;42117;50.360;3.508;2023-02-12T02:30:16;33.05;;;15.00;;
56201;SDS011;42117;50.360;3.508;2023-02-12T02:35:35;27.38;;;14.25;;
56201;SDS011;42117;50.360;3.508;2023-02-12T02:38:11;27.03;;;14.50;;
56201;SDS011;42117;50.360;3.508;2023-02-12T02:40:48;30.33;;;15.07;;
56201;SDS011;42117;50.360;3.508;2023-02-12T02:43:16;27.10;;;14.63;;
56201;SDS011;42117;50.360;3.508;2023-02-12T02:45:51;31.38;;;15.10;;
56201;SDS011;42117;50.360;3.508;2023-02-12T02:48:19;27.30;;;14.27;;
56201;SDS011;42117;50.360;3.508;2023-02-12T02:50:48;31.90;;;15.52;;
56201;SDS011;42117;50.360;3.508;2023-02-12T02:53:18;27.50;;;14.55;;
56201;SDS011;42117;50.360;3.508;2023-02-12T02:55:46;30.23;;;15.23;;
56201;SDS011;42117;50.360;3.508;2023-02-12T02:58:16;31.00;;;15.27;;
56201;SDS011;42117;50.360;3.508;2023-02-12T03:03:19;26.87;;;14.63;;
56201;SDS011;42117;50.360;3.508;2023-02-12T03:05:48;30.63;;;15.00;;
56201;SDS011;42117;50.360;3.508;2023-02-12T03:08:17;30.02;;;14.63;;
56201;SDS011;42117;50.360;3.508;2023-02-12T03:10:49;32.30;;;15.10;;
56201;SDS011;42117;50.360;3.508;2023-02-12T03:18:25;28.77;;;15.70;;
56201;SDS011;42117;50.360;3.508;2023-02-12T03:20:54;34.85;;;16.00;;
56201;SDS011;42117;50.360;3.508;2023-02-12T03:23:24;28.77;;;15.88;;
56201;SDS011;42117;50.360;3.508;2023-02-12T03:25:52;26.58;;;14.35;;
56201;SDS011;42117;50.360;3.508;2023-02-12T03:28:33;28.38;;;15.02;;
56201;SDS011;42117;50.360;3.508;2023-02-12T03:36:34;31.08;;;16.17;;
56201;SDS011;42117;50.360;3.508;2023-02-12T03:39:06;31.10;;;16.17;;
56201;SDS011;42117;50.360;3.508;2023-02-12T03:41:36;29.07;;;15.93;;
56201;SDS011;42117;50.360;3.508;2023-02-12T03:46:54;32.88;;;15.07;;
56201;SDS011;42117;50.360;3.508;2023-02-12T03:49:24;35.45;;;16.85;;
56201;SDS011;42117;50.360;3.508;2023-02-12T03:51:52;30.60;;;15.70;;
56201;SDS011;42117;50.360;3.508;2023-02-12T03:54:19;32.28;;;16.65;;
56201;SDS011;42117;50.360;3.508;2023-02-12T03:56:47;31.98;;;16.77;;
56201;SDS011;42117;50.360;3.508;2023-02-12T03:59:19;34.92;;;16.92;;
56201;SDS011;42117;50.360;3.508;2023-02-12T04:01:46;30.00;;;16.08;;
56201;SDS011;42117;50.360;3.508;2023-02-12T04:04:13;30.70;;;16.98;;
56201;SDS011;42117;50.360;3.508;2023-02-12T04:06:39;34.55;;;16.90;;
56201;SDS011;42117;50.360;3.508;2023-02-12T04:09:06;29.10;;;15.43;;
56201;SDS011;42117;50.360;3.508;2023-02-12T04:16:50;32.42;;;15.45;;
56201;SDS011;42117;50.360;3.508;2023-02-12T04:19:24;36.42;;;16.67;;
56201;SDS011;42117;50.360;3.508;2023-02-12T04:24:26;34.90;;;16.37;;
56201;SDS011;42117;50.360;3.508;2023-02-12T04:26:58;33.08;;;17.20;;
56201;SDS011;42117;50.360;3.508;2023-02-12T04:29:34;31.98;;;16.95;;
56201;SDS011;42117;50.360;3.508;2023-02-12T04:37:18;29.85;;;15.70;;
56201;SDS011;42117;50.360;3.508;2023-02-12T04:39:45;31.58;;;16.80;;
56201;SDS011;42117;50.360;3.508;2023-02-12T04:42:12;36.28;;;17.40;;
56201;SDS011;42117;50.360;3.508;2023-02-12T04:44:39;38.25;;;16.83;;
56201;SDS011;42117;50.360;3.508;2023-02-12T04:47:06;35.83;;;17.70;;
56201;SDS011;42117;50.360;3.508;2023-02-12T04:49:32;35.58;;;17.15;;
56201;SDS011;42117;50.360;3.508;2023-02-12T04:51:58;39.08;;;17.85;;
56201;SDS011;42117;50.360;3.508;2023-02-12T04:54:24;37.40;;;17.58;;
56201;SDS011;42117;50.360;3.508;2023-02-12T04:56:50;40.15;;;17.48;;
56201;SDS011;42117;50.360;3.508;2023-02-12T04:59:16;34.85;;;17.67;;
56201;SDS011;42117;50.360;3.508;2023-02-12T05:01:42;38.22;;;18.60;;
56201;SDS011;42117;50.360;3.508;2023-02-12T05:04:09;38.08;;;18.10;;
56201;SDS011;42117;50.360;3.508;2023-02-12T05:06:36;37.67;;;17.58;;
56201;SDS011;42117;50.360;3.508;2023-02-12T05:09:03;35.80;;;17.37;;
56201;SDS011;42117;50.360;3.508;2023-02-12T05:11:29;36.60;;;17.42;;
56201;SDS011;42117;50.360;3.508;2023-02-12T05:13:55;36.38;;;18.13;;
56201;SDS011;42117;50.360;3.508;2023-02-12T05:16:21;37.33;;;18.00;;
56201;SDS011;42117;50.360;3.508;2023-02-12T05:18:48;33.67;;;17.00;;
56201;SDS011;42117;50.360;3.508;2023-02-12T05:21:14;38.72;;;18.20;;
56201;SDS011;42117;50.360;3.508;2023-02-12T05:23:40;38.50;;;18.02;;
56201;SDS011;42117;50.360;3.508;2023-02-12T05:26:15;40.60;;;17.77;;
56201;SDS011;42117;50.360;3.508;2023-02-12T05:28:42;42.95;;;18.48;;
56201;SDS011;42117;50.360;3.508;2023-02-12T05:31:08;35.53;;;17.60;;
56201;SDS011;42117;50.360;3.508;2023-02-12T05:33:35;37.80;;;18.83;;
56201;SDS011;42117;50.360;3.508;2023-02-12T05:36:05;39.15;;;18.88;;
56201;SDS011;42117;50.360;3.508;2023-02-12T05:38:31;37.97;;;18.35;;
56201;SDS011;42117;50.360;3.508;2023-02-12T05:41:02;44.17;;;19.00;;
56201;SDS011;42117;50.360;3.508;2023-02-12T05:43:28;38.75;;;18.48;;
56201;SDS011;42117;50.360;3.508;2023-02-12T05:45:54;36.42;;;17.83;;
56201;SDS011;42117;50.360;3.508;2023-02-12T05:48:20;41.20;;;18.70;;
56201;SDS011;42117;50.360;3.508;2023-02-12T05:50:46;35.97;;;18.33;;
56201;SDS011;42117;50.360;3.508;2023-02-12T05:53:12;38.83;;;19.02;;
56201;SDS011;42117;50.360;3.508;2023-02-12T05:55:38;45.90;;;22.70;;
56201;SDS011;42117;50.360;3.508;2023-02-12T05:58:04;42.10;;;19.80;;
56201;SDS011;42117;50.360;3.508;2023-02-12T06:00:30;47.85;;;28.92;;
56201;SDS011;42117;50.360;3.508;2023-02-12T06:02:56;47.33;;;24.00;;
56201;SDS011;42117;50.360;3.508;2023-02-12T06:05:22;41.20;;;19.15;;
56201;SDS011;42117;50.360;3.508;2023-02-12T06:07:48;38.55;;;17.67;;
56201;SDS011;42117;50.360;3.508;2023-02-12T06:10:14;41.85;;;18.63;;
56201;SDS011;42117;50.360;3.508;2023-02-12T06:12:40;43.60;;;19.42;;
56201;SDS011;42117;50.360;3.508;2023-02-12T06:15:06;41.38;;;19.25;;
56201;SDS011;42117;50.360;3.508;2023-02-12T06:17:32;40.70;;;18.95;;
56201;SDS011;42117;50.360;3.508;2023-02-12T06:19:58;40.45;;;19.15;;
56201;SDS011;42117;50.360;3.508;2023-02-12T06:22:26;41.42;;;20.38;;
56201;SDS011;42117;50.360;3.508;2023-02-12T06:24:52;43.50;;;18.08;;
56201;SDS011;42117;50.360;3.508;2023-02-12T06:27:18;39.60;;;18.60;;
56201;SDS011;42117;50.360;3.508;2023-02-12T06:29:44;42.17;;;19.08;;
56201;SDS011;42117;50.360;3.508;2023-02-12T06:32:10;40.47;;;18.60;;
56201;SDS011;42117;50.360;3.508;2023-02-12T06:34:37;42.85;;;19.35;;
56201;SDS011;42117;50.360;3.508;2023-02-12T06:37:03;40.75;;;18.17;;
56201;SDS011;42117;50.360;3.508;2023-02-12T06:39:29;46.92;;;18.63;;
56201;SDS011;42117;50.360;3.508;2023-02-12T06:41:55;42.80;;;19.08;;
56201;SDS011;42117;50.360;3.508;2023-02-12T06:44:21;39.30;;;17.95;;
56201;SDS011;42117;50.360;3.508;2023-02-12T06:46:47;38.70;;;19.02;;
56201;SDS011;42117;50.360;3.508;2023-02-12T06:49:13;39.10;;;18.88;;
56201;SDS011;42117;50.360;3.508;2023-02-12T06:51:40;43.15;;;18.58;;
56201;SDS011;42117;50.360;3.508;2023-02-12T06:54:13;42.90;;;19.45;;
56201;SDS011;42117;50.360;3.508;2023-02-12T06:56:39;41.73;;;19.37;;
56201;SDS011;42117;50.360;3.508;2023-02-12T06:59:05;38.37;;;18.67;;
56201;SDS011;42117;50.360;3.508;2023-02-12T07:01:31;40.37;;;18.67;;
56201;SDS011;42117;50.360;3.508;2023-02-12T07:03:58;43.03;;;23.13;;
56201;SDS011;42117;50.360;3.508;2023-02-12T07:06:26;36.10;;;18.43;;
56201;SDS011;42117;50.360;3.508;2023-02-12T07:08:53;38.77;;;18.23;;
56201;SDS011;42117;50.360;3.508;2023-02-12T07:11:21;41.22;;;19.10;;
56201;SDS011;42117;50.360;3.508;2023-02-12T07:13:48;36.83;;;17.58;;
56201;SDS011;42117;50.360;3.508;2023-02-12T07:16:14;42.53;;;20.20;;
56201;SDS011;42117;50.360;3.508;2023-02-12T07:18:41;40.30;;;18.55;;
56201;SDS011;42117;50.360;3.508;2023-02-12T07:21:07;41.67;;;19.27;;
56201;SDS011;42117;50.360;3.508;2023-02-12T07:23:34;35.53;;;17.55;;
56201;SDS011;42117;50.360;3.508;2023-02-12T07:26:02;44.20;;;19.08;;
56201;SDS011;42117;50.360;3.508;2023-02-12T07:28:29;37.28;;;19.17;;
56201;SDS011;42117;50.360;3.508;2023-02-12T07:30:59;42.15;;;18.45;;
56201;SDS011;42117;50.360;3.508;2023-02-12T07:33:25;44.15;;;18.67;;
56201;SDS011;42117;50.360;3.508;2023-02-12T07:35:51;41.97;;;19.35;;
56201;SDS011;42117;50.360;3.508;2023-02-12T07:38:17;38.65;;;18.45;;
56201;SDS011;42117;50.360;3.508;2023-02-12T07:40:43;37.60;;;18.75;;
56201;SDS011;42117;50.360;3.508;2023-02-12T07:43:09;41.03;;;18.80;;
56201;SDS011;42117;50.360;3.508;2023-02-12T07:45:35;42.17;;;18.58;;
56201;SDS011;42117;50.360;3.508;2023-02-12T07:48:01;39.20;;;19.35;;
56201;SDS011;42117;50.360;3.508;2023-02-12T07:50:27;41.05;;;19.52;;
56201;SDS011;42117;50.360;3.508;2023-02-12T07:52:53;43.00;;;18.98;;
56201;SDS011;42117;50.360;3.508;2023-02-12T07:55:18;40.83;;;18.88;;
56201;SDS011;42117;50.360;3.508;2023-02-12T07:57:44;36.75;;;17.70;;
56201;SDS011;42117;50.360;3.508;2023-02-12T08:00:11;34.47;;;18.02;;
56201;SDS011;42117;50.360;3.508;2023-02-12T08:02:37;35.80;;;18.80;;
56201;SDS011;42117;50.360;3.508;2023-02-12T08:05:03;36.10;;;17.08;;
56201;SDS011;42117;50.360;3.508;2023-02-12T08:07:29;35.30;;;18.47;;
56201;SDS011;42117;50.360;3.508;2023-02-12T08:09:55;36.53;;;17.92;;
56201;SDS011;42117;50.360;3.508;2023-02-12T08:12:21;34.42;;;17.60;;
56201;SDS011;42117;50.360;3.508;2023-02-12T08:14:47;35.40;;;18.17;;
56201;SDS011;42117;50.360;3.508;2023-02-12T08:17:13;36.13;;;18.50;;
56201;SDS011;42117;50.360;3.508;2023-02-12T08:19:39;34.58;;;17.05;;
56201;SDS011;42117;50.360;3.508;2023-02-12T08:22:05;37.42;;;18.45;;
56201;SDS011;42117;50.360;3.508;2023-02-12T08:24:31;34.60;;;18.08;;
56201;SDS011;42117;50.360;3.508;2023-02-12T08:26:57;36.83;;;18.67;;
56201;SDS011;42117;50.360;3.508;2023-02-12T08:29:25;33.50;;;16.67;;
56201;SDS011;42117;50.360;3.508;2023-02-12T08:31:59;33.53;;;18.17;;
56201;SDS011;42117;50.360;3.508;2023-02-12T08:34:26;31.20;;;17.67;;
56201;SDS011;42117;50.360;3.508;2023-02-12T08:36:53;35.65;;;17.52;;
56201;SDS011;42117;50.360;3.508;2023-02-12T08:39:19;38.65;;;17.88;;
56201;SDS011;42117;50.360;3.508;2023-02-12T08:41:46;36.37;;;17.83;;
56201;SDS011;42117;50.360;3.508;2023-02-12T08:44:12;35.05;;;18.50;;
56201;SDS011;42117;50.360;3.508;2023-02-12T08:46:39;34.58;;;17.85;;
56201;SDS011;42117;50.360;3.508;2023-02-12T08:49:15;35.38;;;18.40;;
56201;SDS011;42117;50.360;3.508;2023-02-12T08:51:43;35.50;;;17.80;;
56201;SDS011;42117;50.360;3.508;2023-02-12T08:54:11;34.35;;;18.35;;
56201;SDS011;42117;50.360;3.508;2023-02-12T08:56:38;37.67;;;18.47;;
56201;SDS011;42117;50.360;3.508;2023-02-12T08:59:04;32.78;;;16.77;;
56201;SDS011;42117;50.360;3.508;2023-02-12T09:01:31;31.02;;;16.88;;
56201;SDS011;42117;50.360;3.508;2023-02-12T09:03:58;33.33;;;17.85;;
56201;SDS011;42117;50.360;3.508;2023-02-12T09:06:24;31.30;;;17.23;;
56201;SDS011;42117;50.360;3.508;2023-02-12T09:08:51;36.13;;;18.50;;
56201;SDS011;42117;50.360;3.508;2023-02-12T09:11:18;35.33;;;19.05;;
56201;SDS011;42117;50.360;3.508;2023-02-12T09:13:45;33.75;;;18.20;;
56201;SDS011;42117;50.360;3.508;2023-02-12T09:16:12;38.42;;;19.48;;
56201;SDS011;42117;50.360;3.508;2023-02-12T09:18:38;32.17;;;17.80;;
56201;SDS011;42117;50.360;3.508;2023-02-12T09:21:06;36.73;;;17.67;;
56201;SDS011;42117;50.360;3.508;2023-02-12T09:23:33;39.58;;;19.35;;
56201;SDS011;42117;50.360;3.508;2023-02-12T09:26:02;35.03;;;18.20;;
56201;SDS011;42117;50.360;3.508;2023-02-12T09:28:28;38.28;;;18.48;;
56201;SDS011;42117;50.360;3.508;2023-02-12T09:30:54;32.28;;;17.27;;
56201;SDS011;42117;50.360;3.508;2023-02-12T09:33:20;34.08;;;18.95;;
56201;SDS011;42117;50.360;3.508;2023-02-12T09:35:46;32.47;;;16.90;;
56201;SDS011;42117;50.360;3.508;2023-02-12T09:38:13;36.10;;;17.83;;
56201;SDS011;42117;50.360;3.508;2023-02-12T09:45:38;37.30;;;17.40;;
56201;SDS011;42117;50.360;3.508;2023-02-12T09:53:02;31.00;;;16.90;;
56201;SDS011;42117;50.360;3.508;2023-02-12T09:55:30;32.67;;;18.02;;
56201;SDS011;42117;50.360;3.508;2023-02-12T09:57:56;32.15;;;18.25;;
56201;SDS011;42117;50.360;3.508;2023-02-12T10:00:24;33.40;;;17.65;;
56201;SDS011;42117;50.360;3.508;2023-02-12T10:02:53;30.25;;;16.58;;
56201;SDS011;42117;50.360;3.508;2023-02-12T10:05:42;37.42;;;17.98;;
56201;SDS011;42117;50.360;3.508;2023-02-12T10:10:56;32.88;;;17.05;;
56201;SDS011;42117;50.360;3.508;2023-02-12T10:21:05;30.52;;;16.58;;
56201;SDS011;42117;50.360;3.508;2023-02-12T10:26:23;31.20;;;17.20;;
56201;SDS011;42117;50.360;3.508;2023-02-12T10:28:50;29.20;;;16.25;;
56201;SDS011;42117;50.360;3.508;2023-02-12T10:33:48;31.27;;;15.60;;
56201;SDS011;42117;50.360;3.508;2023-02-12T10:38:41;28.30;;;15.68;;
56201;SDS011;42117;50.360;3.508;2023-02-12T10:41:10;30.00;;;16.55;;
56201;SDS011;42117;50.360;3.508;2023-02-12T10:43:38;29.47;;;16.30;;
56201;SDS011;42117;50.360;3.508;2023-02-12T10:46:04;27.07;;;16.17;;
56201;SDS011;42117;50.360;3.508;2023-02-12T10:48:31;30.03;;;16.00;;
56201;SDS011;42117;50.360;3.508;2023-02-12T10:51:07;29.67;;;16.17;;
56201;SDS011;42117;50.360;3.508;2023-02-12T10:53:38;26.83;;;16.48;;
56201;SDS011;42117;50.360;3.508;2023-02-12T11:01:19;27.92;;;16.00;;
56201;SDS011;42117;50.360;3.508;2023-02-12T11:03:46;29.83;;;15.95;;
56201;SDS011;42117;50.360;3.508;2023-02-12T11:08:38;33.70;;;16.80;;
56201;SDS011;42117;50.360;3.508;2023-02-12T11:13:30;29.63;;;16.37;;
56201;SDS011;42117;50.360;3.508;2023-02-12T11:15:56;27.97;;;15.87;;
56201;SDS011;42117;50.360;3.508;2023-02-12T11:18:23;28.63;;;16.33;;
56201;SDS011;42117;50.360;3.508;2023-02-12T11:21:09;39.42;;;23.88;;
56201;SDS011;42117;50.360;3.508;2023-02-12T11:23:37;28.30;;;16.20;;
56201;SDS011;42117;50.360;3.508;2023-02-12T11:28:29;29.67;;;15.70;;
56201;SDS011;42117;50.360;3.508;2023-02-12T11:31:03;29.58;;;15.70;;
56201;SDS011;42117;50.360;3.508;2023-02-12T11:33:42;27.55;;;15.18;;
56201;SDS011;42117;50.360;3.508;2023-02-12T11:38:36;29.05;;;15.90;;
56201;SDS011;42117;50.360;3.508;2023-02-12T11:41:48;26.63;;;15.43;;
56201;SDS011;42117;50.360;3.508;2023-02-12T11:43:53;25.92;;;15.18;;
56201;SDS011;42117;50.360;3.508;2023-02-12T11:46:20;30.20;;;15.00;;
56201;SDS011;42117;50.360;3.508;2023-02-12T11:48:47;28.90;;;15.10;;
56201;SDS011;42117;50.360;3.508;2023-02-12T11:51:17;25.63;;;14.48;;
56201;SDS011;42117;50.360;3.508;2023-02-12T11:53:46;25.73;;;14.32;;
56201;SDS011;42117;50.360;3.508;2023-02-12T11:56:13;25.80;;;14.32;;
56201;SDS011;42117;50.360;3.508;2023-02-12T11:58:39;28.75;;;14.85;;
56201;SDS011;42117;50.360;3.508;2023-02-12T12:03:37;28.42;;;14.13;;
56201;SDS011;42117;50.360;3.508;2023-02-12T12:14:29;23.75;;;12.27;;
56201;SDS011;42117;50.360;3.508;2023-02-12T12:17:03;22.83;;;11.65;;
56201;SDS011;42117;50.360;3.508;2023-02-12T12:20:04;22.30;;;11.77;;
56201;SDS011;42117;50.360;3.508;2023-02-12T12:22:46;25.50;;;12.85;;
56201;SDS011;42117;50.360;3.508;2023-02-12T12:25:20;22.65;;;12.32;;
56201;SDS011;42117;50.360;3.508;2023-02-12T12:30:47;24.83;;;12.70;;
56201;SDS011;42117;50.360;3.508;2023-02-12T12:35:54;21.80;;;11.53;;
56201;SDS011;42117;50.360;3.508;2023-02-12T12:38:28;24.25;;;11.95;;
56201;SDS011;42117;50.360;3.508;2023-02-12T12:41:21;27.00;;;12.55;;
56201;SDS011;42117;50.360;3.508;2023-02-12T12:46:41;23.10;;;12.23;;
56201;SDS011;42117;50.360;3.508;2023-02-12T12:49:24;24.15;;;12.02;;
56201;SDS011;42117;50.360;3.508;2023-02-12T12:52:17;27.42;;;13.20;;
56201;SDS011;42117;50.360;3.508;2023-02-12T13:07:37;26.88;;;12.85;;
56201;SDS011;42117;50.360;3.508;2023-02-12T13:15:31;33.72;;;13.95;;
56201;SDS011;42117;50.360;3.508;2023-02-12T13:18:44;30.95;;;14.38;;
56201;SDS011;42117;50.360;3.508;2023-02-12T13:20:50;33.80;;;15.30;;
56201;SDS011;42117;50.360;3.508;2023-02-12T13:26:28;29.13;;;13.80;;
56201;SDS011;42117;50.360;3.508;2023-02-12T13:29:05;29.58;;;14.40;;
56201;SDS011;42117;50.360;3.508;2023-02-12T13:31:34;32.10;;;13.90;;
56201;SDS011;42117;50.360;3.508;2023-02-12T13:34:01;29.35;;;13.48;;
56201;SDS011;42117;50.360;3.508;2023-02-12T13:36:29;31.00;;;13.50;;
56201;SDS011;42117;50.360;3.508;2023-02-12T13:38:57;33.20;;;14.25;;
56201;SDS011;42117;50.360;3.508;2023-02-12T13:41:25;32.33;;;14.60;;
56201;SDS011;42117;50.360;3.508;2023-02-12T13:48:52;32.70;;;13.10;;
56201;SDS011;42117;50.360;3.508;2023-02-12T13:51:27;29.83;;;14.00;;
56201;SDS011;42117;50.360;3.508;2023-02-12T13:53:57;34.03;;;13.95;;
56201;SDS011;42117;50.360;3.508;2023-02-12T13:56:26;33.85;;;13.02;;
56201;SDS011;42117;50.360;3.508;2023-02-12T13:58:54;29.42;;;13.18;;
56201;SDS011;42117;50.360;3.508;2023-02-12T14:06:59;26.98;;;12.55;;
56201;SDS011;42117;50.360;3.508;2023-02-12T14:09:28;28.27;;;12.98;;
56201;SDS011;42117;50.360;3.508;2023-02-12T14:11:56;26.92;;;12.32;;
56201;SDS011;42117;50.360;3.508;2023-02-12T14:14:30;32.70;;;13.25;;
56201;SDS011;42117;50.360;3.508;2023-02-12T14:16:57;31.15;;;13.23;;
56201;SDS011;42117;50.360;3.508;2023-02-12T14:19:53;28.00;;;13.25;;
56201;SDS011;42117;50.360;3.508;2023-02-12T14:24:52;26.20;;;12.07;;
56201;SDS011;42117;50.360;3.508;2023-02-12T14:28:04;27.00;;;12.82;;
56201;SDS011;42117;50.360;3.508;2023-02-12T14:35:29;19.90;;;9.43;;
56201;SDS011;42117;50.360;3.508;2023-02-12T14:37:57;22.48;;;9.57;;
56201;SDS011;42117;50.360;3.508;2023-02-12T14:42:55;20.02;;;9.40;;
56201;SDS011;42117;50.360;3.508;2023-02-12T14:45:26;15.88;;;8.55;;
56201;SDS011;42117;50.360;3.508;2023-02-12T14:47:52;17.75;;;8.27;;
56201;SDS011;42117;50.360;3.508;2023-02-12T14:50:20;18.88;;;8.48;;
56201;SDS011;42117;50.360;3.508;2023-02-12T14:52:51;17.70;;;8.10;;
56201;SDS011;42117;50.360;3.508;2023-02-12T14:55:19;15.35;;;7.65;;
56201;SDS011;42117;50.360;3.508;2023-02-12T14:57:46;15.20;;;7.90;;
56201;SDS011;42117;50.360;3.508;2023-02-12T15:05:23;12.40;;;6.37;;
56201;SDS011;42117;50.360;3.508;2023-02-12T15:07:51;13.48;;;6.80;;
56201;SDS011;42117;50.360;3.508;2023-02-12T15:10:23;15.17;;;7.37;;
56201;SDS011;42117;50.360;3.508;2023-02-12T15:12:53;11.60;;;6.85;;
56201;SDS011;42117;50.360;3.508;2023-02-12T15:17:59;15.32;;;7.40;;
56201;SDS011;42117;50.360;3.508;2023-02-12T15:20:36;16.52;;;7.30;;
56201;SDS011;42117;50.360;3.508;2023-02-12T15:23:25;16.60;;;6.57;;
56201;SDS011;42117;50.360;3.508;2023-02-12T15:25:49;12.90;;;6.85;;
56201;SDS011;42117;50.360;3.508;2023-02-12T15:28:19;11.47;;;6.43;;
56201;SDS011;42117;50.360;3.508;2023-02-12T15:30:46;11.27;;;6.03;;
56201;SDS011;42117;50.360;3.508;2023-02-12T15:33:20;14.13;;;6.73;;
56201;SDS011;42117;50.360;3.508;2023-02-12T15:35:49;10.68;;;6.43;;
56201;SDS011;42117;50.360;3.508;2023-02-12T15:38:22;14.05;;;7.20;;
56201;SDS011;42117;50.360;3.508;2023-02-12T15:40:53;12.07;;;6.32;;
56201;SDS011;42117;50.360;3.508;2023-02-12T15:43:20;13.02;;;6.32;;
56201;SDS011;42117;50.360;3.508;2023-02-12T15:45:50;11.18;;;5.90;;
56201;SDS011;42117;50.360;3.508;2023-02-12T15:48:20;13.30;;;6.85;;
56201;SDS011;42117;50.360;3.508;2023-02-12T15:53:13;13.30;;;6.65;;
56201;SDS011;42117;50.360;3.508;2023-02-12T15:55:40;14.60;;;6.78;;
56201;SDS011;42117;50.360;3.508;2023-02-12T15:58:16;16.77;;;6.40;;
56201;SDS011;42117;50.360;3.508;2023-02-12T16:00:43;15.05;;;6.72;;
56201;SDS011;42117;50.360;3.508;2023-02-12T16:03:29;13.00;;;5.88;;
56201;SDS011;42117;50.360;3.508;2023-02-12T16:06:06;11.18;;;6.43;;
56201;SDS011;42117;50.360;3.508;2023-02-12T16:08:38;11.85;;;6.63;;
56201;SDS011;42117;50.360;3.508;2023-02-12T16:11:05;12.50;;;6.20;;
56201;SDS011;42117;50.360;3.508;2023-02-12T16:13:39;13.73;;;6.25;;
56201;SDS011;42117;50.360;3.508;2023-02-12T16:18:36;11.73;;;6.18;;
56201;SDS011;42117;50.360;3.508;2023-02-12T16:21:09;16.17;;;6.18;;
56201;SDS011;42117;50.360;3.508;2023-02-12T16:23:36;15.83;;;6.83;;
56201;SDS011;42117;50.360;3.508;2023-02-12T16:26:02;13.90;;;6.22;;
56201;SDS011;42117;50.360;3.508;2023-02-12T16:28:29;14.85;;;6.82;;
56201;SDS011;42117;50.360;3.508;2023-02-12T16:31:08;10.23;;;5.93;;
56201;SDS011;42117;50.360;3.508;2023-02-12T16:43:40;11.27;;;6.40;;
56201;SDS011;42117;50.360;3.508;2023-02-12T16:46:06;10.55;;;6.20;;
56201;SDS011;42117;50.360;3.508;2023-02-12T16:48:37;12.02;;;6.45;;
56201;SDS011;42117;50.360;3.508;2023-02-12T16:51:03;10.82;;;6.25;;
56201;SDS011;42117;50.360;3.508;2023-02-12T16:55:57;13.27;;;6.00;;
56201;SDS011;42117;50.360;3.508;2023-02-12T16:58:24;11.48;;;6.22;;
56201;SDS011;42117;50.360;3.508;2023-02-12T17:00:50;13.23;;;6.40;;
56201;SDS011;42117;50.360;3.508;2023-02-12T17:03:16;12.50;;;6.47;;
56201;SDS011;42117;50.360;3.508;2023-02-12T17:05:43;14.02;;;6.57;;
56201;SDS011;42117;50.360;3.508;2023-02-12T17:08:14;12.70;;;6.57;;
56201;SDS011;42117;50.360;3.508;2023-02-12T17:10:40;12.68;;;7.18;;
56201;SDS011;42117;50.360;3.508;2023-02-12T17:13:08;13.55;;;6.60;;
56201;SDS011;42117;50.360;3.508;2023-02-12T17:15:54;14.13;;;7.90;;
56201;SDS011;42117;50.360;3.508;2023-02-12T17:18:21;22.50;;;9.52;;
56201;SDS011;42117;50.360;3.508;2023-02-12T17:20:57;20.65;;;8.95;;
56201;SDS011;42117;50.360;3.508;2023-02-12T17:23:24;18.63;;;8.77;;
56201;SDS011;42117;50.360;3.508;2023-02-12T17:25:50;15.40;;;7.70;;
56201;SDS011;42117;50.360;3.508;2023-02-12T17:28:16;13.73;;;6.78;;
56201;SDS011;42117;50.360;3.508;2023-02-12T17:30:43;14.23;;;7.22;;